createdAt,value
2022-11-15T00:00:59.733Z,30.70
2022-11-15T00:03:28.786Z,28.52
2022-11-15T00:05:56.129Z,30.92
2022-11-15T00:08:23.204Z,27.83
2022-11-15T00:11:01.847Z,29.25
2022-11-15T00:13:30.106Z,29.75
2022-11-15T00:16:02.121Z,31.75
2022-11-15T00:18:30.071Z,27.55
2022-11-15T00:20:57.755Z,28.02
2022-11-15T00:23:24.677Z,28.50
2022-11-15T00:25:59.401Z,26.23
2022-11-15T00:28:27.029Z,28.70
2022-11-15T00:30:53.978Z,26.60
2022-11-15T00:33:21.043Z,27.30
2022-11-15T00:35:48.060Z,28.42
2022-11-15T00:38:15.422Z,25.98
2022-11-15T00:40:42.900Z,26.60
2022-11-15T00:43:09.873Z,26.27
2022-11-15T00:45:36.886Z,27.75
2022-11-15T00:48:04.034Z,26.40
2022-11-15T00:50:31.003Z,25.33
2022-11-15T00:52:57.915Z,24.55
2022-11-15T00:55:24.935Z,25.60
2022-11-15T00:57:51.897Z,24.60
2022-11-15T01:00:19.000Z,26.95
2022-11-15T01:02:45.955Z,23.63
2022-11-15T01:05:12.887Z,27.10
2022-11-15T01:07:39.924Z,30.42
2022-11-15T01:10:07.552Z,31.10
2022-11-15T01:12:34.497Z,28.38
2022-11-15T01:15:01.628Z,27.88
2022-11-15T01:17:28.627Z,29.55
2022-11-15T01:19:55.533Z,29.95
2022-11-15T01:22:22.571Z,31.75
2022-11-15T01:24:51.845Z,35.92
2022-11-15T01:27:18.872Z,36.05
2022-11-15T01:29:45.837Z,40.03
2022-11-15T01:32:12.806Z,39.05
2022-11-15T01:34:39.831Z,38.05
2022-11-15T01:37:06.762Z,42.60
2022-11-15T01:39:35.001Z,42.38
2022-11-15T01:42:01.966Z,42.20
2022-11-15T01:44:35.074Z,42.03
2022-11-15T01:49:38.822Z,41.70
2022-11-15T01:52:14.606Z,37.13
2022-11-15T01:54:41.677Z,34.45
2022-11-15T01:57:11.738Z,36.95
2022-11-15T01:59:40.654Z,35.50
2022-11-15T02:02:08.190Z,38.25
2022-11-15T02:04:47.395Z,32.17
2022-11-15T02:07:18.844Z,34.10
2022-11-15T02:09:54.633Z,36.78
2022-11-15T02:12:43.731Z,34.30
2022-11-15T02:15:12.281Z,36.20
2022-11-15T02:18:02.109Z,35.50
2022-11-15T02:20:48.320Z,38.10
2022-11-15T02:23:45.124Z,37.13
2022-11-15T02:26:33.380Z,35.78
2022-11-15T02:29:12.879Z,39.70
2022-11-15T02:32:01.778Z,41.55
2022-11-15T02:34:51.680Z,36.63
2022-11-15T02:37:41.846Z,36.50
2022-11-15T02:40:19.092Z,38.88
2022-11-15T02:43:18.698Z,38.10
2022-11-15T02:45:55.391Z,33.90
2022-11-15T02:48:24.542Z,37.17
2022-11-15T02:50:52.278Z,41.25
2022-11-15T02:53:19.188Z,38.67
2022-11-15T02:55:52.246Z,39.28
2022-11-15T03:01:05.390Z,40.53
2022-11-15T03:03:47.391Z,37.55
2022-11-15T03:06:31.062Z,36.13
2022-11-15T03:09:06.318Z,34.83
2022-11-15T03:11:42.414Z,31.23
2022-11-15T03:14:15.247Z,29.98
2022-11-15T03:16:46.982Z,25.25
2022-11-15T03:19:35.492Z,26.58
2022-11-15T03:22:06.787Z,23.48
2022-11-15T03:24:37.443Z,22.25
2022-11-15T03:27:06.796Z,22.63
2022-11-15T03:29:39.339Z,24.15
2022-11-15T03:32:31.114Z,26.35
2022-11-15T03:35:03.067Z,21.27
2022-11-15T03:37:40.729Z,19.73
2022-11-15T03:40:08.517Z,22.73
2022-11-15T03:42:45.902Z,20.45
2022-11-15T03:45:37.386Z,20.83
2022-11-15T03:48:14.646Z,22.77
2022-11-15T03:50:43.612Z,20.77
2022-11-15T03:53:11.114Z,24.50
2022-11-15T03:55:38.070Z,21.73
2022-11-15T03:58:05.471Z,22.15
2022-11-15T04:00:32.684Z,20.85
2022-11-15T04:02:59.642Z,20.35
2022-11-15T04:05:26.792Z,22.48
2022-11-15T04:07:53.795Z,21.25
2022-11-15T04:10:21.080Z,18.63
2022-11-15T04:12:48.788Z,21.80
2022-11-15T04:15:22.179Z,21.63
2022-11-15T04:17:51.223Z,23.88
2022-11-15T04:20:47.992Z,22.38
2022-11-15T04:23:37.999Z,19.85
2022-11-15T04:26:17.265Z,23.13
2022-11-15T04:29:02.952Z,21.42
2022-11-15T04:31:30.033Z,21.30
2022-11-15T04:33:57.353Z,21.30
2022-11-15T04:36:43.237Z,23.80
2022-11-15T04:39:10.260Z,21.73
2022-11-15T04:41:37.269Z,27.85
2022-11-15T04:44:04.305Z,29.33
2022-11-15T04:46:31.255Z,28.20
2022-11-15T04:48:59.262Z,27.85
2022-11-15T04:51:26.891Z,29.88
2022-11-15T04:53:53.979Z,34.30
2022-11-15T04:56:20.991Z,31.85
2022-11-15T04:58:50.762Z,31.38
2022-11-15T05:01:18.382Z,31.17
2022-11-15T05:04:04.705Z,32.10
2022-11-15T05:06:31.981Z,29.55
2022-11-15T05:08:59.187Z,28.90
2022-11-15T05:11:26.507Z,25.50
2022-11-15T05:13:53.408Z,32.92
2022-11-15T05:16:20.550Z,29.92
2022-11-15T05:18:47.520Z,30.10
2022-11-15T05:21:15.896Z,31.27
2022-11-15T05:23:43.244Z,27.73
2022-11-15T05:26:10.740Z,31.15
2022-11-15T05:28:38.177Z,30.55
2022-11-15T05:31:07.506Z,31.27
2022-11-15T05:33:35.737Z,26.55
2022-11-15T05:36:08.961Z,30.70
2022-11-15T05:38:35.919Z,29.50
2022-11-15T05:41:03.923Z,28.55
2022-11-15T05:43:34.378Z,31.50
2022-11-15T05:46:02.782Z,31.02
2022-11-15T05:48:29.947Z,29.05
2022-11-15T05:50:57.570Z,35.83
2022-11-15T05:53:26.609Z,39.97
2022-11-15T05:55:53.761Z,42.45
2022-11-15T05:58:21.605Z,36.78
2022-11-15T06:00:48.870Z,39.35
2022-11-15T06:03:15.853Z,36.72
2022-11-15T06:05:42.791Z,37.60
2022-11-15T06:08:09.738Z,40.58
2022-11-15T06:10:36.768Z,38.88
2022-11-15T06:13:05.749Z,40.90
2022-11-15T06:15:37.530Z,42.42
2022-11-15T06:18:04.649Z,41.55
2022-11-15T06:20:32.104Z,40.97
2022-11-15T06:23:04.078Z,41.13
2022-11-15T06:25:31.958Z,50.80
2022-11-15T06:27:59.852Z,39.67
2022-11-15T06:30:27.887Z,43.20
2022-11-15T06:33:05.494Z,41.78
2022-11-15T06:35:35.579Z,45.67
2022-11-15T06:38:10.592Z,41.92
2022-11-15T06:40:38.961Z,41.03
2022-11-15T06:43:07.030Z,43.45
2022-11-15T06:45:34.283Z,40.60
2022-11-15T06:48:01.302Z,39.67
2022-11-15T06:50:28.311Z,37.88
2022-11-15T06:52:55.714Z,37.92
2022-11-15T06:55:22.933Z,38.45
2022-11-15T06:57:51.802Z,39.95
2022-11-15T07:00:20.733Z,43.67
2022-11-15T07:02:48.388Z,51.63
2022-11-15T07:05:16.536Z,46.80
2022-11-15T07:07:43.773Z,45.65
2022-11-15T07:10:11.171Z,44.42
2022-11-15T07:12:38.130Z,46.28
2022-11-15T07:15:05.587Z,45.95
2022-11-15T07:17:32.986Z,53.75
2022-11-15T07:19:59.913Z,53.25
2022-11-15T07:22:26.892Z,51.33
2022-11-15T07:24:54.021Z,51.35
2022-11-15T07:27:20.987Z,49.95
2022-11-15T07:29:47.966Z,53.85
2022-11-15T07:32:15.211Z,51.42
2022-11-15T07:34:42.191Z,43.03
2022-11-15T07:37:09.334Z,51.33
2022-11-15T07:39:36.346Z,48.17
2022-11-15T07:42:22.036Z,52.55
2022-11-15T07:44:49.058Z,53.35
2022-11-15T07:47:16.152Z,54.45
2022-11-15T07:49:43.081Z,57.50
2022-11-15T07:52:10.081Z,57.83
2022-11-15T07:54:37.113Z,61.15
2022-11-15T07:57:07.563Z,59.08
2022-11-15T07:59:36.087Z,62.97
2022-11-15T08:02:03.646Z,58.67
2022-11-15T08:04:30.660Z,63.92
2022-11-15T08:06:58.440Z,56.40
2022-11-15T08:09:25.549Z,68.13
2022-11-15T08:11:52.701Z,61.65
2022-11-15T08:14:19.633Z,76.05
2022-11-15T08:16:46.559Z,66.82
2022-11-15T08:19:13.581Z,69.55
2022-11-15T08:21:40.539Z,68.82
2022-11-15T08:24:09.914Z,66.90
2022-11-15T08:26:36.868Z,60.97
2022-11-15T08:29:04.198Z,69.22
2022-11-15T08:31:31.219Z,69.55
2022-11-15T08:33:58.158Z,64.68
2022-11-15T08:36:27.572Z,59.78
2022-11-15T08:38:56.787Z,66.30
2022-11-15T08:41:36.387Z,72.47
2022-11-15T08:44:03.430Z,64.47
2022-11-15T08:46:30.368Z,68.15
2022-11-15T08:48:57.471Z,70.75
2022-11-15T08:51:24.430Z,74.90
2022-11-15T08:53:54.119Z,72.55
2022-11-15T08:56:21.567Z,71.78
2022-11-15T08:58:48.645Z,68.43
2022-11-15T09:01:21.042Z,71.47
2022-11-15T09:03:48.403Z,76.22
2022-11-15T09:06:15.988Z,80.22
2022-11-15T09:08:47.860Z,79.57
2022-11-15T09:11:18.106Z,78.32
2022-11-15T09:13:45.122Z,80.93
2022-11-15T09:16:13.741Z,74.43
2022-11-15T09:18:40.968Z,79.43
2022-11-15T09:21:25.021Z,93.25
2022-11-15T09:23:53.907Z,78.25
2022-11-15T09:26:21.416Z,83.82
2022-11-15T09:28:48.916Z,90.60
2022-11-15T09:31:20.957Z,84.95
2022-11-15T09:33:49.162Z,93.07
2022-11-15T09:36:16.417Z,94.15
2022-11-15T09:38:43.358Z,100.95
2022-11-15T09:41:12.998Z,99.68
2022-11-15T09:44:08.049Z,100.80
2022-11-15T09:47:00.193Z,99.00
2022-11-15T09:49:27.453Z,89.03
2022-11-15T09:51:55.644Z,88.55
2022-11-15T09:54:52.172Z,87.38
2022-11-15T09:57:42.898Z,83.97
2022-11-15T10:00:46.040Z,78.43
2022-11-15T10:03:21.598Z,86.60
2022-11-15T10:05:54.509Z,84.40
2022-11-15T10:11:36.743Z,79.47
2022-11-15T10:14:24.872Z,88.63
2022-11-15T10:16:56.530Z,91.40
2022-11-15T10:19:34.187Z,89.63
2022-11-15T10:22:30.637Z,90.13
2022-11-15T10:25:10.120Z,75.30
2022-11-15T10:27:38.119Z,87.97
2022-11-15T10:30:14.897Z,82.07
2022-11-15T10:32:45.490Z,84.38
2022-11-15T10:35:23.902Z,73.18
2022-11-15T10:37:51.134Z,81.97
2022-11-15T10:40:24.573Z,75.78
2022-11-15T10:43:19.868Z,82.63
2022-11-15T10:45:47.929Z,80.50
2022-11-15T10:48:15.995Z,81.57
2022-11-15T10:50:46.268Z,75.55
2022-11-15T10:53:43.028Z,83.30
2022-11-15T10:56:16.850Z,75.05
2022-11-15T10:58:51.336Z,78.40
2022-11-15T11:01:24.993Z,78.63
2022-11-15T11:04:10.031Z,68.55
2022-11-15T11:06:50.794Z,77.07
2022-11-15T11:09:38.903Z,74.78
2022-11-15T11:12:10.903Z,77.63
2022-11-15T11:14:39.968Z,79.00
2022-11-15T11:17:27.450Z,87.80
2022-11-15T11:20:19.640Z,75.82
2022-11-15T11:23:14.288Z,82.13
2022-11-15T11:26:07.158Z,89.60
2022-11-15T11:28:58.275Z,94.07
2022-11-15T11:31:43.272Z,93.78
2022-11-15T11:34:39.186Z,105.22
2022-11-15T11:37:45.101Z,101.50
2022-11-15T11:40:30.966Z,97.35
2022-11-15T11:43:22.551Z,97.47
2022-11-15T11:46:12.101Z,90.85
2022-11-15T11:48:43.960Z,98.72
2022-11-15T11:51:20.538Z,104.78
2022-11-15T11:53:53.602Z,113.30
2022-11-15T11:56:26.322Z,98.88
2022-11-15T11:58:55.618Z,96.18
2022-11-15T12:01:44.048Z,100.03
2022-11-15T12:04:30.763Z,84.68
2022-11-15T12:07:22.812Z,85.80
2022-11-15T12:10:17.117Z,87.95
2022-11-15T12:13:07.060Z,77.72
2022-11-15T12:15:48.485Z,77.57
2022-11-15T12:18:17.573Z,66.63
2022-11-15T12:20:58.321Z,68.35
2022-11-15T12:23:42.485Z,64.25
2022-11-15T12:26:21.842Z,66.85
2022-11-15T12:29:08.836Z,60.75
2022-11-15T12:31:36.096Z,63.38
2022-11-15T12:34:30.943Z,55.13
2022-11-15T12:36:57.906Z,51.30
2022-11-15T12:40:04.183Z,45.35
2022-11-15T12:42:31.395Z,43.53
2022-11-15T12:45:26.217Z,41.22
2022-11-15T12:47:53.232Z,38.88
2022-11-15T12:50:52.785Z,42.03
2022-11-15T12:53:25.673Z,31.02
2022-11-15T12:58:58.261Z,29.75
2022-11-15T13:01:34.282Z,33.67
2022-11-15T13:04:28.089Z,31.48
2022-11-15T13:06:55.267Z,36.13
2022-11-15T13:09:37.072Z,33.67
2022-11-15T13:12:35.419Z,28.55
2022-11-15T13:15:12.460Z,38.47
2022-11-15T13:17:52.746Z,32.58
2022-11-15T13:20:31.662Z,31.85
2022-11-15T13:23:13.413Z,38.13
2022-11-15T13:26:17.538Z,31.77
2022-11-15T13:28:53.408Z,30.95
2022-11-15T13:31:28.312Z,31.23
2022-11-15T13:34:00.982Z,32.67
2022-11-15T13:36:31.651Z,33.65
2022-11-15T13:39:24.493Z,33.13
2022-11-15T13:41:52.740Z,37.05
2022-11-15T13:44:25.564Z,38.65
2022-11-15T13:49:35.141Z,35.80
2022-11-15T13:52:05.590Z,30.40
2022-11-15T13:55:00.018Z,32.63
2022-11-15T13:57:31.304Z,47.60
2022-11-15T14:00:03.413Z,52.70
2022-11-15T14:02:39.755Z,44.33
2022-11-15T14:05:25.327Z,47.55
2022-11-15T14:08:01.229Z,41.63
2022-11-15T14:10:34.710Z,49.40
2022-11-15T14:13:02.567Z,36.90
2022-11-15T14:15:31.498Z,42.00
2022-11-15T14:17:58.876Z,47.05
2022-11-15T14:20:31.752Z,50.83
2022-11-15T14:25:31.780Z,45.95
2022-11-15T14:28:16.927Z,58.92
2022-11-15T14:30:48.240Z,50.80
2022-11-15T14:33:34.475Z,61.38
2022-11-15T14:36:15.352Z,60.75
2022-11-15T14:38:43.982Z,66.22
2022-11-15T14:41:26.109Z,60.28
2022-11-15T14:43:53.984Z,64.38
2022-11-15T14:46:21.048Z,67.13
2022-11-15T14:48:48.037Z,65.05
2022-11-15T14:51:19.185Z,58.97
2022-11-15T14:53:46.977Z,65.88
2022-11-15T14:56:15.150Z,65.13
2022-11-15T14:58:42.309Z,66.38
2022-11-15T15:01:28.102Z,60.17
2022-11-15T15:03:58.150Z,53.75
2022-11-15T15:06:25.736Z,61.72
2022-11-15T15:08:52.771Z,59.20
2022-11-15T15:11:25.481Z,57.75
2022-11-15T15:13:53.487Z,66.75
2022-11-15T15:16:20.907Z,76.07
2022-11-15T15:18:48.165Z,63.97
2022-11-15T15:21:29.896Z,77.45
2022-11-15T15:24:00.799Z,74.18
2022-11-15T15:26:28.029Z,70.93
2022-11-15T15:28:55.138Z,69.20
2022-11-15T15:31:22.108Z,66.10
2022-11-15T15:33:49.098Z,81.10
2022-11-15T15:36:19.682Z,84.57
2022-11-15T15:38:47.827Z,81.90
2022-11-15T15:41:16.677Z,78.80
2022-11-15T15:43:43.870Z,87.63
2022-11-15T15:46:16.449Z,88.78
2022-11-15T15:48:43.636Z,76.18
2022-11-15T15:51:18.527Z,85.80
2022-11-15T15:53:47.083Z,94.13
2022-11-15T15:56:13.981Z,94.30
2022-11-15T15:58:40.949Z,89.82
2022-11-15T16:01:08.046Z,83.20
2022-11-15T16:03:35.008Z,89.32
2022-11-15T16:06:02.228Z,91.40
2022-11-15T16:08:42.629Z,96.07
2022-11-15T16:11:17.680Z,94.50
2022-11-15T16:13:44.631Z,95.40
2022-11-15T16:16:14.766Z,105.93
2022-11-15T16:18:41.696Z,103.93
2022-11-15T16:21:09.703Z,107.95
2022-11-15T16:23:36.669Z,116.57
2022-11-15T16:26:10.947Z,129.60
2022-11-15T16:28:38.096Z,137.45
2022-11-15T16:31:10.645Z,144.13
2022-11-15T16:33:38.430Z,147.73
2022-11-15T16:36:09.980Z,138.80
2022-11-15T16:38:37.349Z,141.75
2022-11-15T16:41:04.668Z,128.60
2022-11-15T16:43:31.657Z,133.63
2022-11-15T16:45:58.696Z,130.43
2022-11-15T16:48:28.233Z,125.28
2022-11-15T16:50:57.068Z,115.72
2022-11-15T16:53:24.316Z,117.03
2022-11-15T16:55:51.293Z,112.38
2022-11-15T16:58:18.200Z,119.75
2022-11-15T17:00:45.318Z,109.82
2022-11-15T17:05:58.130Z,124.80
2022-11-15T17:08:25.151Z,124.38
2022-11-15T17:10:52.244Z,117.53
2022-11-15T17:13:19.550Z,140.13
2022-11-15T17:15:46.564Z,119.97
2022-11-15T17:18:15.526Z,115.40
2022-11-15T17:20:43.527Z,118.28
2022-11-15T17:23:14.836Z,107.70
2022-11-15T17:25:42.036Z,104.68
2022-11-15T17:28:09.118Z,113.13
2022-11-15T17:30:36.179Z,121.82
2022-11-15T17:33:03.174Z,117.07
2022-11-15T17:35:30.096Z,129.15
2022-11-15T17:37:57.089Z,132.55
2022-11-15T17:40:24.039Z,161.20
2022-11-15T17:42:51.052Z,158.82
2022-11-15T17:45:18.115Z,164.38
2022-11-15T17:47:45.120Z,172.30
2022-11-15T17:50:12.035Z,154.45
2022-11-15T17:52:39.071Z,183.93
2022-11-15T17:55:07.660Z,167.48
2022-11-15T17:57:34.613Z,168.10
2022-11-15T18:00:01.622Z,175.57
2022-11-15T18:02:28.581Z,157.95
2022-11-15T18:04:55.494Z,138.18
2022-11-15T18:07:22.497Z,146.43
2022-11-15T18:09:49.596Z,148.57
2022-11-15T18:12:16.791Z,132.23
2022-11-15T18:14:43.786Z,115.35
2022-11-15T18:17:10.756Z,118.97
2022-11-15T18:19:37.851Z,118.13
2022-11-15T18:22:07.397Z,110.15
2022-11-15T18:24:42.710Z,116.20
2022-11-15T18:27:09.815Z,114.10
2022-11-15T18:29:38.068Z,103.93
2022-11-15T18:32:12.824Z,107.88
2022-11-15T18:34:40.149Z,99.13
2022-11-15T18:37:09.582Z,103.15
2022-11-15T18:39:39.851Z,151.32
2022-11-15T18:42:06.834Z,157.15
2022-11-15T18:44:34.518Z,164.13
2022-11-15T18:47:01.544Z,158.25
2022-11-15T18:49:28.724Z,152.07
2022-11-15T18:51:57.057Z,158.50
2022-11-15T18:54:29.641Z,155.45
2022-11-15T18:56:58.085Z,149.10
2022-11-15T18:59:27.772Z,139.68
2022-11-15T19:01:56.106Z,155.38
2022-11-15T19:04:23.159Z,152.65
2022-11-15T19:06:50.999Z,157.60
2022-11-15T19:09:19.634Z,154.40
2022-11-15T19:11:48.257Z,175.82
2022-11-15T19:14:17.167Z,167.20
2022-11-15T19:16:52.557Z,174.20
2022-11-15T19:19:28.480Z,164.45
2022-11-15T19:21:57.629Z,166.45
2022-11-15T19:24:26.754Z,176.68
2022-11-15T19:26:55.000Z,187.05
2022-11-15T19:29:22.151Z,189.45
2022-11-15T19:31:49.102Z,198.45
2022-11-15T19:34:16.648Z,201.02
2022-11-15T19:36:45.499Z,203.75
2022-11-15T19:39:14.357Z,198.63
2022-11-15T19:41:43.738Z,188.18
2022-11-15T19:44:12.381Z,181.85
2022-11-15T19:46:39.557Z,179.65
2022-11-15T19:49:08.133Z,176.13
2022-11-15T19:51:35.105Z,173.27
2022-11-15T19:54:06.659Z,183.23
2022-11-15T19:56:34.927Z,173.60
2022-11-15T19:59:02.634Z,154.07
2022-11-15T20:01:32.005Z,148.05
2022-11-15T20:04:00.325Z,163.25
2022-11-15T20:06:36.054Z,179.43
2022-11-15T20:09:03.633Z,153.73
2022-11-15T20:11:30.582Z,123.57
2022-11-15T20:14:02.314Z,112.35
2022-11-15T20:16:30.081Z,111.60
2022-11-15T20:18:57.523Z,95.57
2022-11-15T20:21:25.037Z,99.63
2022-11-15T20:23:52.487Z,112.85
2022-11-15T20:26:20.607Z,103.85
2022-11-15T20:28:49.608Z,92.30
2022-11-15T20:31:17.391Z,88.25
2022-11-15T20:33:44.495Z,86.53
2022-11-15T20:36:14.448Z,91.32
2022-11-15T20:38:42.067Z,102.10
2022-11-15T20:41:11.486Z,116.53
2022-11-15T20:43:38.888Z,108.80
2022-11-15T20:46:05.931Z,104.35
2022-11-15T20:48:33.152Z,89.53
2022-11-15T20:51:06.224Z,99.75
2022-11-15T20:53:33.609Z,101.25
2022-11-15T20:56:22.328Z,113.18
2022-11-15T20:58:53.497Z,101.38
2022-11-15T21:01:24.913Z,98.65
2022-11-15T21:03:54.328Z,101.97
2022-11-15T21:06:22.188Z,106.72
2022-11-15T21:09:09.358Z,100.32
2022-11-15T21:11:55.403Z,107.90
2022-11-15T21:14:22.417Z,103.63
2022-11-15T21:16:51.805Z,119.10
2022-11-15T21:19:21.592Z,103.70
2022-11-15T21:21:49.723Z,109.07
2022-11-15T21:24:16.781Z,107.45
2022-11-15T21:26:43.712Z,117.00
2022-11-15T21:29:10.771Z,109.68
2022-11-15T21:31:37.675Z,121.80
2022-11-15T21:34:04.688Z,112.43
2022-11-15T21:36:31.755Z,114.95
2022-11-15T21:38:59.180Z,110.28
2022-11-15T21:41:26.205Z,113.55
2022-11-15T21:43:57.140Z,106.15
2022-11-15T21:46:24.059Z,107.50
2022-11-15T21:48:51.033Z,98.35
2022-11-15T21:51:18.097Z,115.97
2022-11-15T21:53:45.085Z,108.25
2022-11-15T21:56:12.311Z,114.38
2022-11-15T21:58:39.924Z,117.13
2022-11-15T22:01:26.783Z,117.13
2022-11-15T22:03:53.750Z,107.53
2022-11-15T22:06:20.682Z,109.95
2022-11-15T22:08:47.814Z,115.13
2022-11-15T22:11:15.454Z,129.38
2022-11-15T22:13:43.166Z,140.70
2022-11-15T22:16:10.581Z,128.10
2022-11-15T22:18:38.519Z,126.15
2022-11-15T22:21:11.230Z,131.02
2022-11-15T22:23:38.377Z,119.70
2022-11-15T22:26:05.760Z,141.30
2022-11-15T22:28:33.114Z,135.18
2022-11-15T22:31:00.493Z,135.05
2022-11-15T22:33:30.804Z,138.95
2022-11-15T22:35:58.720Z,144.65
2022-11-15T22:38:26.798Z,141.70
2022-11-15T22:40:54.621Z,162.82
2022-11-15T22:43:23.820Z,140.77
2022-11-15T22:45:59.030Z,137.60
2022-11-15T22:48:28.987Z,148.75
2022-11-15T22:50:56.575Z,161.43
2022-11-15T22:53:23.811Z,159.95
2022-11-15T22:55:52.930Z,151.30
2022-11-15T22:58:21.533Z,162.48
2022-11-15T23:00:50.251Z,146.95
2022-11-15T23:03:18.507Z,150.30
2022-11-15T23:05:45.815Z,149.82
2022-11-15T23:08:13.313Z,135.65
2022-11-15T23:10:58.821Z,147.63
2022-11-15T23:13:29.071Z,137.60
2022-11-15T23:16:23.792Z,125.90
2022-11-15T23:18:51.855Z,129.63
2022-11-15T23:21:43.607Z,139.20
2022-11-15T23:24:12.258Z,125.57
2022-11-15T23:26:40.059Z,114.32
2022-11-15T23:29:09.599Z,122.95
2022-11-15T23:32:01.487Z,124.93
2022-11-15T23:34:31.330Z,90.25
2022-11-15T23:36:59.137Z,124.20
2022-11-15T23:39:26.704Z,122.15
2022-11-15T23:41:53.729Z,121.50
2022-11-15T23:44:20.857Z,120.85
2022-11-15T23:46:47.937Z,130.32
2022-11-15T23:49:15.149Z,148.52
2022-11-15T23:51:42.314Z,136.73
2022-11-15T23:54:09.423Z,137.90
2022-11-15T23:56:37.487Z,130.70
2022-11-15T23:59:25.013Z,127.63
